< < Back
Terminal Aerodrome Forecast


Current Version              Previous Versions:   1  2  3  4  5  6  7  8  9  

Terminal Aerodrome Forecast

943
FTUS44 KBMX 021700 CCA
TAFTCL
TAF COR
KTCL 021734Z 0218/0318 03005KT 4SM -SHRA BR OVC008
     FM030300 VRB03KT 2SM -SHRA BR OVC003
     FM031500 15004KT 5SM -SHRA BR OVC008=



Latest METAR

808
SAUS70 KWBC 031100 RRA
MTRTCL
METAR KTCL 031053Z AUTO 05003KT 1/2SM FG OVC002 11/11 A3016 RMK AO2
SLP212 T01060106


USA.gov is the U.S. government's official web portal to all federal, state and local government web resources and services.